Time;durP1;ratioP1;P1;durP2;ratioP2;P2;SDS_P1;SDS_P2;PMS_P1;PMS_P2;Temp;Humidity;BMP_temperature;BMP_pressure;BME280_temperature;BME280_humidity;BME280_pressure;Samples;Min_cycle;Max_cycle;Signal;HPM_P1;HPM_P2
2023/07/08 00:19:56;;;;;;;;;;;;;;;27.10;44.53;100846.16;41925259;28;19928;-83
2023/07/08 00:39:59;;;;;;;;;;;;;;;27.09;44.12;100838.34;41947386;28;19925;-81
2023/07/08 01:00:04;;;;;;;;;;;;;;;27.05;44.39;100831.63;41942089;28;20002;-82
2023/07/08 01:20:05;;;;;;;;;;;;;;;27.05;44.00;100835.13;41902672;28;20410;-80
2023/07/08 01:40:15;;;;;;;;;;;;;;;27.02;43.96;100837.25;41923818;28;19909;-82
2023/07/08 02:00:15;;;;;;;;;;;;;;;26.99;44.16;100825.09;41912820;28;19960;-82
2023/07/08 02:20:16;;;;;;;;;;;;;;;26.98;44.13;100831.38;41906704;28;19940;-81
2023/07/08 02:40:16;;;;;;;;;;;;;;;26.96;44.11;100830.69;41912421;28;20389;-79
2023/07/08 03:00:17;;;;;;;;;;;;;;;26.93;44.17;100842.44;41913782;28;19936;-82
2023/07/08 03:20:17;;;;;;;;;;;;;;;26.91;44.23;100844.41;41891108;28;19930;-81
2023/07/08 03:40:17;;;;;;;;;;;;;;;26.89;43.93;100867.66;41882111;28;19951;-81
2023/07/08 04:00:18;;;;;;;;;;;;;;;26.89;44.16;100872.09;41901914;28;19925;-81
2023/07/08 04:20:24;;;;;;;;;;;;;;;26.87;44.33;100879.38;41884205;28;19925;-80
2023/07/08 04:40:24;;;;;;;;;;;;;;;26.84;43.91;100870.72;41890948;28;19939;-81
2023/07/08 05:00:24;;;;;;;;;;;;;;;26.83;43.82;100890.31;41929378;28;19932;-81
2023/07/08 05:20:26;;;;;;;;;;;;;;;26.83;44.27;100898.28;41895203;28;19970;-82
2023/07/08 05:40:26;;;;;;;;;;;;;;;26.82;44.19;100909.88;41923862;28;19925;-79
2023/07/08 06:00:27;;;;;;;;;;;;;;;26.84;43.79;100923.00;41895686;28;19925;-81
2023/07/08 06:20:27;;;;;;;;;;;;;;;26.86;43.76;100921.06;41896078;28;19928;-82
2023/07/08 06:40:28;;;;;;;;;;;;;;;26.88;43.64;100921.78;41902435;28;19935;-82
2023/07/08 07:00:28;;;;;;;;;;;;;;;26.88;43.96;100913.78;41890184;28;19929;-80
2023/07/08 07:20:33;;;;;;;;;;;;;;;26.91;44.14;100899.38;41906492;28;19924;-80
2023/07/08 07:40:33;;;;;;;;;;;;;;;26.91;43.79;100900.22;41879127;28;19921;-81
2023/07/08 08:00:34;;;;;;;;;;;;;;;26.92;44.34;100901.06;41890710;28;19955;-81
2023/07/08 08:20:34;;;;;;;;;;;;;;;26.92;44.44;100887.78;41817871;28;20307;-80
2023/07/08 08:40:34;;;;;;;;;;;;;;;26.92;44.48;100877.16;41750594;28;20048;-79
2023/07/08 09:00:55;;;;;;;;;;;;;;;26.93;44.32;100874.34;41749382;28;19964;-81
2023/07/08 09:20:57;;;;;;;;;;;;;;;26.93;44.41;100849.59;41819241;28;20404;-79
2023/07/08 09:40:58;;;;;;;;;;;;;;;26.94;44.47;100856.56;41893095;28;19929;-82
2023/07/08 10:01:00;;;;;;;;;;;;;;;26.93;44.43;100850.41;41917533;28;20023;-81
2023/07/08 10:21:09;;;;;;;;;;;;;;;26.99;44.00;100835.72;41819737;28;19909;-82
2023/07/08 10:41:33;;;;;;;;;;;;;;;27.00;43.91;100824.06;41727303;28;19929;-79
2023/07/08 11:01:34;;;;;;;;;;;;;;;27.02;43.81;100808.84;41749938;28;19931;-81
2023/07/08 11:21:43;;;;;;;;;;;;;;;27.10;44.27;100800.09;41755145;28;19944;-82
2023/07/08 11:41:44;;;;;;;;;;;;;;;27.19;43.96;100785.13;41741977;28;19932;-82
2023/07/08 12:01:53;;;;;;;;;;;;;;;27.27;43.77;100766.56;41753357;28;19937;-82
2023/07/08 12:21:54;;;;;;;;;;;;;;;27.36;43.87;100754.22;41794361;28;19957;-79
2023/07/08 12:41:56;;;;;;;;;;;;;;;27.46;43.52;100736.38;41777132;28;19925;-82
2023/07/08 13:01:57;;;;;;;;;;;;;;;27.54;43.68;100725.81;41786004;28;19936;-80
2023/07/08 13:21:58;;;;;;;;;;;;;;;27.64;43.38;100699.97;41861693;28;19971;-81
2023/07/08 13:42:00;;;;;;;;;;;;;;;27.78;43.06;100711.03;41932406;28;20508;-82
2023/07/08 14:02:00;;;;;;;;;;;;;;;27.87;42.90;100699.47;41923660;28;19932;-78
2023/07/08 14:22:19;;;;;;;;;;;;;;;27.94;42.70;100681.03;41923325;28;20256;-81
2023/07/08 14:42:20;;;;;;;;;;;;;;;28.02;42.54;100683.75;41910665;28;20379;-82
2023/07/08 15:02:21;;;;;;;;;;;;;;;28.05;42.89;100672.00;41894716;28;19979;-81
2023/07/08 15:22:21;;;;;;;;;;;;;;;28.09;42.56;100668.03;41939027;28;19931;-81
2023/07/08 15:42:22;;;;;;;;;;;;;;;28.13;42.86;100639.28;41903790;28;19928;-81
2023/07/08 16:02:26;;;;;;;;;;;;;;;28.22;42.38;100638.31;41917514;28;19924;-81
2023/07/08 16:22:27;;;;;;;;;;;;;;;28.23;42.28;100639.97;41928290;28;19928;-81
2023/07/08 16:42:27;;;;;;;;;;;;;;;28.17;42.49;100629.97;41920396;28;19925;-81
2023/07/08 17:02:28;;;;;;;;;;;;;;;28.11;42.63;100624.28;41965335;28;20806;-82
2023/07/08 17:22:28;;;;;;;;;;;;;;;28.01;42.60;100628.03;41947225;28;19948;-82
2023/07/08 17:42:29;;;;;;;;;;;;;;;27.91;42.77;100636.13;41918153;28;19931;-83
2023/07/08 18:02:29;;;;;;;;;;;;;;;27.84;42.89;100632.44;41929289;28;19925;-82
2023/07/08 18:22:29;;;;;;;;;;;;;;;27.78;42.90;100645.38;41922623;28;20434;-82
2023/07/08 18:42:29;;;;;;;;;;;;;;;27.70;43.30;100655.13;41903639;28;19975;-82
2023/07/08 19:02:35;;;;;;;;;;;;;;;27.47;37.50;100671.56;41836252;28;19925;-83
2023/07/08 19:22:36;;;;;;;;;;;;;;;27.32;36.13;100695.19;41890614;28;19928;-82
2023/07/08 19:42:36;;;;;;;;;;;;;;;27.17;36.44;100706.34;41921795;28;19939;-80
2023/07/08 20:02:37;;;;;;;;;;;;;;;27.16;37.30;100704.66;41824773;28;19924;-84
2023/07/08 20:22:38;;;;;;;;;;;;;;;26.93;37.88;100709.56;41862603;28;19995;-80
2023/07/08 20:42:39;;;;;;;;;;;;;;;26.07;39.59;100731.81;41859515;28;19933;-79
2023/07/08 21:02:39;;;;;;;;;;;;;;;25.83;40.25;100737.56;41856916;28;20386;-84
2023/07/08 21:22:40;;;;;;;;;;;;;;;25.62;41.11;100735.91;41867940;28;19924;-84
2023/07/08 21:42:40;;;;;;;;;;;;;;;25.24;42.35;100742.81;41879633;28;19921;-85
2023/07/08 22:02:45;;;;;;;;;;;;;;;24.91;43.00;100748.34;41882749;28;19955;-85
2023/07/08 22:22:45;;;;;;;;;;;;;;;24.49;44.49;100735.19;41850840;28;19932;-84
2023/07/08 22:42:46;;;;;;;;;;;;;;;24.32;45.62;100733.16;41785907;28;19932;-83
2023/07/08 23:02:46;;;;;;;;;;;;;;;23.91;46.55;100743.56;41783413;28;19975;-81
2023/07/08 23:22:47;;;;;;;;;;;;;;;23.83;47.23;100760.09;41712901;28;19995;-84
2023/07/08 23:42:49;;;;;;;;;;;;;;;23.46;47.46;100766.59;41632762;28;22346;-81
